sensor_id;sensor_type;location;lat;lon;timestamp;P1;durP1;ratioP1;P2;durP2;ratioP2
36303;SDS011;22335;49.800;8.596;2023-04-06T00:05:15;11.80;;;10.88;;
36303;SDS011;22335;49.800;8.596;2023-04-06T00:11:59;11.57;;;10.65;;
36303;SDS011;22335;49.800;8.596;2023-04-06T00:18:43;12.60;;;11.43;;
36303;SDS011;22335;49.800;8.596;2023-04-06T00:25:28;10.70;;;9.80;;
36303;SDS011;22335;49.800;8.596;2023-04-06T00:32:12;11.10;;;10.20;;
36303;SDS011;22335;49.800;8.596;2023-04-06T00:38:56;10.80;;;9.93;;
36303;SDS011;22335;49.800;8.596;2023-04-06T00:45:41;10.40;;;9.60;;
36303;SDS011;22335;49.800;8.596;2023-04-06T00:52:25;10.40;;;9.60;;
36303;SDS011;22335;49.800;8.596;2023-04-06T00:59:10;10.40;;;9.70;;
36303;SDS011;22335;49.800;8.596;2023-04-06T01:05:56;10.77;;;9.75;;
36303;SDS011;22335;49.800;8.596;2023-04-06T01:12:47;11.82;;;10.82;;
36303;SDS011;22335;49.800;8.596;2023-04-06T01:19:39;11.10;;;10.20;;
36303;SDS011;22335;49.800;8.596;2023-04-06T01:26:33;10.98;;;10.18;;
36303;SDS011;22335;49.800;8.596;2023-04-06T01:33:21;11.15;;;10.25;;
36303;SDS011;22335;49.800;8.596;2023-04-06T01:40:15;11.55;;;10.68;;
36303;SDS011;22335;49.800;8.596;2023-04-06T01:47:05;12.30;;;11.30;;
36303;SDS011;22335;49.800;8.596;2023-04-06T01:53:49;12.10;;;11.10;;
36303;SDS011;22335;49.800;8.596;2023-04-06T02:00:36;11.93;;;11.07;;
36303;SDS011;22335;49.800;8.596;2023-04-06T02:07:21;11.70;;;10.80;;
36303;SDS011;22335;49.800;8.596;2023-04-06T02:14:06;11.77;;;10.77;;
36303;SDS011;22335;49.800;8.596;2023-04-06T02:20:55;11.93;;;11.02;;
36303;SDS011;22335;49.800;8.596;2023-04-06T02:27:40;12.27;;;11.30;;
36303;SDS011;22335;49.800;8.596;2023-04-06T02:34:24;11.80;;;10.90;;
36303;SDS011;22335;49.800;8.596;2023-04-06T02:41:08;12.32;;;11.32;;
36303;SDS011;22335;49.800;8.596;2023-04-06T03:02:56;11.43;;;10.63;;
36303;SDS011;22335;49.800;8.596;2023-04-06T03:09:40;12.27;;;11.33;;
36303;SDS011;22335;49.800;8.596;2023-04-06T03:16:25;11.77;;;10.98;;
36303;SDS011;22335;49.800;8.596;2023-04-06T03:23:10;12.27;;;11.38;;
36303;SDS011;22335;49.800;8.596;2023-04-06T03:29:56;11.77;;;10.77;;
36303;SDS011;22335;49.800;8.596;2023-04-06T03:36:45;11.73;;;10.75;;
36303;SDS011;22335;49.800;8.596;2023-04-06T03:43:36;13.20;;;12.13;;
36303;SDS011;22335;49.800;8.596;2023-04-06T03:50:20;12.55;;;11.43;;
36303;SDS011;22335;49.800;8.596;2023-04-06T03:57:04;12.57;;;11.55;;
36303;SDS011;22335;49.800;8.596;2023-04-06T04:03:49;12.00;;;11.00;;
36303;SDS011;22335;49.800;8.596;2023-04-06T04:10:33;10.77;;;10.05;;
36303;SDS011;22335;49.800;8.596;2023-04-06T04:17:17;12.02;;;11.10;;
36303;SDS011;22335;49.800;8.596;2023-04-06T04:24:02;11.23;;;10.35;;
36303;SDS011;22335;49.800;8.596;2023-04-06T04:30:48;12.07;;;11.18;;
36303;SDS011;22335;49.800;8.596;2023-04-06T04:37:32;14.88;;;13.48;;
36303;SDS011;22335;49.800;8.596;2023-04-06T04:44:19;27.55;;;18.23;;
36303;SDS011;22335;49.800;8.596;2023-04-06T04:51:04;14.23;;;12.63;;
36303;SDS011;22335;49.800;8.596;2023-04-06T04:58:20;12.75;;;11.65;;
36303;SDS011;22335;49.800;8.596;2023-04-06T05:05:10;12.63;;;11.60;;
36303;SDS011;22335;49.800;8.596;2023-04-06T05:11:54;12.20;;;11.20;;
36303;SDS011;22335;49.800;8.596;2023-04-06T05:18:39;12.68;;;11.68;;
36303;SDS011;22335;49.800;8.596;2023-04-06T05:25:24;12.88;;;11.77;;
36303;SDS011;22335;49.800;8.596;2023-04-06T05:32:11;13.38;;;12.32;;
36303;SDS011;22335;49.800;8.596;2023-04-06T05:38:55;13.70;;;12.50;;
36303;SDS011;22335;49.800;8.596;2023-04-06T05:45:54;14.32;;;12.82;;
36303;SDS011;22335;49.800;8.596;2023-04-06T05:52:38;14.85;;;13.45;;
36303;SDS011;22335;49.800;8.596;2023-04-06T05:59:26;16.02;;;14.63;;
36303;SDS011;22335;49.800;8.596;2023-04-06T06:06:11;21.52;;;19.55;;
36303;SDS011;22335;49.800;8.596;2023-04-06T06:20:01;16.45;;;14.95;;
36303;SDS011;22335;49.800;8.596;2023-04-06T06:26:46;16.90;;;15.50;;
36303;SDS011;22335;49.800;8.596;2023-04-06T06:33:32;17.67;;;16.10;;
36303;SDS011;22335;49.800;8.596;2023-04-06T06:40:16;17.38;;;15.68;;
36303;SDS011;22335;49.800;8.596;2023-04-06T06:47:03;16.90;;;15.40;;
36303;SDS011;22335;49.800;8.596;2023-04-06T06:53:47;17.08;;;15.68;;
36303;SDS011;22335;49.800;8.596;2023-04-06T07:00:31;17.98;;;16.27;;
36303;SDS011;22335;49.800;8.596;2023-04-06T07:07:16;17.15;;;15.30;;
36303;SDS011;22335;49.800;8.596;2023-04-06T07:13:59;17.75;;;16.13;;
36303;SDS011;22335;49.800;8.596;2023-04-06T07:20:43;17.02;;;15.30;;
36303;SDS011;22335;49.800;8.596;2023-04-06T07:27:30;17.25;;;15.77;;
36303;SDS011;22335;49.800;8.596;2023-04-06T07:34:14;16.42;;;15.05;;
36303;SDS011;22335;49.800;8.596;2023-04-06T07:40:58;17.00;;;15.57;;
36303;SDS011;22335;49.800;8.596;2023-04-06T07:54:30;17.85;;;15.88;;
36303;SDS011;22335;49.800;8.596;2023-04-06T08:01:13;17.80;;;15.90;;
36303;SDS011;22335;49.800;8.596;2023-04-06T08:07:58;17.00;;;15.50;;
36303;SDS011;22335;49.800;8.596;2023-04-06T08:14:42;16.65;;;15.10;;
36303;SDS011;22335;49.800;8.596;2023-04-06T08:21:26;16.92;;;15.20;;
36303;SDS011;22335;49.800;8.596;2023-04-06T08:28:11;16.15;;;14.57;;
36303;SDS011;22335;49.800;8.596;2023-04-06T08:34:54;16.35;;;14.80;;
36303;SDS011;22335;49.800;8.596;2023-04-06T08:41:38;17.10;;;15.40;;
36303;SDS011;22335;49.800;8.596;2023-04-06T08:48:26;17.33;;;15.52;;
36303;SDS011;22335;49.800;8.596;2023-04-06T08:55:10;16.10;;;14.68;;
36303;SDS011;22335;49.800;8.596;2023-04-06T09:01:54;16.50;;;15.00;;
36303;SDS011;22335;49.800;8.596;2023-04-06T09:08:40;15.77;;;14.38;;
36303;SDS011;22335;49.800;8.596;2023-04-06T09:15:24;16.42;;;14.85;;
36303;SDS011;22335;49.800;8.596;2023-04-06T09:22:09;17.17;;;15.50;;
36303;SDS011;22335;49.800;8.596;2023-04-06T09:28:54;16.55;;;14.93;;
36303;SDS011;22335;49.800;8.596;2023-04-06T09:35:39;18.38;;;16.27;;
36303;SDS011;22335;49.800;8.596;2023-04-06T09:42:23;17.10;;;15.50;;
36303;SDS011;22335;49.800;8.596;2023-04-06T09:49:09;17.67;;;15.98;;
36303;SDS011;22335;49.800;8.596;2023-04-06T09:55:55;16.90;;;15.30;;
36303;SDS011;22335;49.800;8.596;2023-04-06T10:02:48;17.65;;;16.00;;
36303;SDS011;22335;49.800;8.596;2023-04-06T10:09:40;17.35;;;15.32;;
36303;SDS011;22335;49.800;8.596;2023-04-06T10:16:27;16.35;;;14.75;;
36303;SDS011;22335;49.800;8.596;2023-04-06T10:23:12;15.23;;;13.75;;
36303;SDS011;22335;49.800;8.596;2023-04-06T10:30:04;14.75;;;13.30;;
36303;SDS011;22335;49.800;8.596;2023-04-06T10:36:49;14.60;;;13.10;;
36303;SDS011;22335;49.800;8.596;2023-04-06T10:43:33;14.75;;;13.30;;
36303;SDS011;22335;49.800;8.596;2023-04-06T10:50:19;14.30;;;12.93;;
36303;SDS011;22335;49.800;8.596;2023-04-06T10:57:04;14.00;;;12.63;;
36303;SDS011;22335;49.800;8.596;2023-04-06T11:03:48;13.00;;;11.70;;
36303;SDS011;22335;49.800;8.596;2023-04-06T11:10:34;13.25;;;11.95;;
36303;SDS011;22335;49.800;8.596;2023-04-06T11:17:18;14.75;;;13.35;;
36303;SDS011;22335;49.800;8.596;2023-04-06T11:24:09;14.60;;;13.10;;
36303;SDS011;22335;49.800;8.596;2023-04-06T11:30:56;14.43;;;13.03;;
36303;SDS011;22335;49.800;8.596;2023-04-06T11:37:42;13.18;;;11.88;;
36303;SDS011;22335;49.800;8.596;2023-04-06T11:44:31;14.60;;;13.30;;
36303;SDS011;22335;49.800;8.596;2023-04-06T11:51:22;15.55;;;13.00;;
36303;SDS011;22335;49.800;8.596;2023-04-06T11:58:07;13.48;;;12.18;;
36303;SDS011;22335;49.800;8.596;2023-04-06T12:04:51;13.38;;;12.18;;
36303;SDS011;22335;49.800;8.596;2023-04-06T12:11:36;12.50;;;11.27;;
36303;SDS011;22335;49.800;8.596;2023-04-06T12:18:19;11.48;;;10.35;;
36303;SDS011;22335;49.800;8.596;2023-04-06T12:25:03;15.35;;;11.30;;
36303;SDS011;22335;49.800;8.596;2023-04-06T12:31:49;10.90;;;9.88;;
36303;SDS011;22335;49.800;8.596;2023-04-06T12:38:34;12.13;;;11.02;;
36303;SDS011;22335;49.800;8.596;2023-04-06T12:45:20;11.75;;;10.68;;
36303;SDS011;22335;49.800;8.596;2023-04-06T12:58:51;11.80;;;10.60;;
36303;SDS011;22335;49.800;8.596;2023-04-06T13:05:35;13.55;;;10.80;;
36303;SDS011;22335;49.800;8.596;2023-04-06T13:12:19;12.38;;;11.13;;
36303;SDS011;22335;49.800;8.596;2023-04-06T13:19:03;11.63;;;10.57;;
36303;SDS011;22335;49.800;8.596;2023-04-06T13:25:47;11.50;;;10.40;;
36303;SDS011;22335;49.800;8.596;2023-04-06T13:32:32;12.27;;;11.13;;
36303;SDS011;22335;49.800;8.596;2023-04-06T13:39:16;13.83;;;10.73;;
36303;SDS011;22335;49.800;8.596;2023-04-06T13:46:00;11.93;;;10.73;;
36303;SDS011;22335;49.800;8.596;2023-04-06T13:52:45;11.75;;;10.65;;
36303;SDS011;22335;49.800;8.596;2023-04-06T13:59:33;12.52;;;11.43;;
36303;SDS011;22335;49.800;8.596;2023-04-06T14:06:16;12.18;;;11.07;;
36303;SDS011;22335;49.800;8.596;2023-04-06T14:13:09;11.60;;;10.40;;
36303;SDS011;22335;49.800;8.596;2023-04-06T14:19:53;13.18;;;11.88;;
36303;SDS011;22335;49.800;8.596;2023-04-06T14:26:36;11.98;;;10.98;;
36303;SDS011;22335;49.800;8.596;2023-04-06T14:33:21;12.98;;;11.50;;
36303;SDS011;22335;49.800;8.596;2023-04-06T14:40:06;11.30;;;10.20;;
36303;SDS011;22335;49.800;8.596;2023-04-06T14:46:50;13.20;;;11.82;;
36303;SDS011;22335;49.800;8.596;2023-04-06T14:53:35;12.77;;;11.57;;
36303;SDS011;22335;49.800;8.596;2023-04-06T15:00:19;12.80;;;10.38;;
36303;SDS011;22335;49.800;8.596;2023-04-06T15:07:02;10.27;;;9.27;;
36303;SDS011;22335;49.800;8.596;2023-04-06T15:13:47;9.40;;;8.48;;
36303;SDS011;22335;49.800;8.596;2023-04-06T15:27:16;9.10;;;8.20;;
36303;SDS011;22335;49.800;8.596;2023-04-06T15:34:01;9.27;;;8.48;;
36303;SDS011;22335;49.800;8.596;2023-04-06T15:40:45;10.13;;;8.40;;
36303;SDS011;22335;49.800;8.596;2023-04-06T15:47:29;8.75;;;7.95;;
36303;SDS011;22335;49.800;8.596;2023-04-06T15:54:14;9.50;;;8.60;;
36303;SDS011;22335;49.800;8.596;2023-04-06T16:00:58;10.43;;;9.47;;
36303;SDS011;22335;49.800;8.596;2023-04-06T16:07:42;9.30;;;8.52;;
36303;SDS011;22335;49.800;8.596;2023-04-06T16:14:27;12.02;;;9.57;;
36303;SDS011;22335;49.800;8.596;2023-04-06T16:21:13;9.40;;;8.60;;
36303;SDS011;22335;49.800;8.596;2023-04-06T16:27:58;8.85;;;8.10;;
36303;SDS011;22335;49.800;8.596;2023-04-06T16:34:43;8.85;;;8.13;;
36303;SDS011;22335;49.800;8.596;2023-04-06T16:41:27;8.73;;;7.90;;
36303;SDS011;22335;49.800;8.596;2023-04-06T16:48:11;8.80;;;8.07;;
36303;SDS011;22335;49.800;8.596;2023-04-06T16:54:56;8.55;;;7.75;;
36303;SDS011;22335;49.800;8.596;2023-04-06T17:01:45;8.10;;;7.40;;
36303;SDS011;22335;49.800;8.596;2023-04-06T17:08:28;7.90;;;7.20;;
36303;SDS011;22335;49.800;8.596;2023-04-06T17:15:15;6.70;;;6.20;;
36303;SDS011;22335;49.800;8.596;2023-04-06T17:21:59;7.57;;;6.97;;
36303;SDS011;22335;49.800;8.596;2023-04-06T17:28:44;7.90;;;7.18;;
36303;SDS011;22335;49.800;8.596;2023-04-06T17:35:28;7.80;;;7.07;;
36303;SDS011;22335;49.800;8.596;2023-04-06T17:42:12;7.60;;;6.90;;
36303;SDS011;22335;49.800;8.596;2023-04-06T17:48:55;9.57;;;7.00;;
36303;SDS011;22335;49.800;8.596;2023-04-06T17:55:40;14.43;;;7.72;;
36303;SDS011;22335;49.800;8.596;2023-04-06T18:02:23;7.50;;;6.90;;
36303;SDS011;22335;49.800;8.596;2023-04-06T18:09:07;7.47;;;6.78;;
36303;SDS011;22335;49.800;8.596;2023-04-06T18:15:52;8.50;;;7.80;;
36303;SDS011;22335;49.800;8.596;2023-04-06T18:22:35;8.13;;;7.43;;
36303;SDS011;22335;49.800;8.596;2023-04-06T18:29:19;7.55;;;6.85;;
36303;SDS011;22335;49.800;8.596;2023-04-06T18:36:04;8.00;;;7.30;;
36303;SDS011;22335;49.800;8.596;2023-04-06T18:42:49;8.82;;;8.02;;
36303;SDS011;22335;49.800;8.596;2023-04-06T18:49:33;9.40;;;8.60;;
36303;SDS011;22335;49.800;8.596;2023-04-06T18:56:18;8.30;;;7.70;;
36303;SDS011;22335;49.800;8.596;2023-04-06T19:03:02;8.32;;;7.70;;
36303;SDS011;22335;49.800;8.596;2023-04-06T19:09:46;8.30;;;7.70;;
36303;SDS011;22335;49.800;8.596;2023-04-06T19:16:30;9.48;;;8.68;;
36303;SDS011;22335;49.800;8.596;2023-04-06T19:29:59;10.43;;;9.60;;
36303;SDS011;22335;49.800;8.596;2023-04-06T19:36:44;10.27;;;9.38;;
36303;SDS011;22335;49.800;8.596;2023-04-06T19:43:27;11.23;;;10.40;;
36303;SDS011;22335;49.800;8.596;2023-04-06T19:50:11;11.32;;;10.43;;
36303;SDS011;22335;49.800;8.596;2023-04-06T19:56:57;13.32;;;12.13;;
36303;SDS011;22335;49.800;8.596;2023-04-06T20:03:41;15.07;;;13.85;;
36303;SDS011;22335;49.800;8.596;2023-04-06T20:10:24;14.65;;;13.55;;
36303;SDS011;22335;49.800;8.596;2023-04-06T20:17:09;16.92;;;15.55;;
36303;SDS011;22335;49.800;8.596;2023-04-06T20:23:56;17.52;;;15.85;;
36303;SDS011;22335;49.800;8.596;2023-04-06T20:30:40;18.40;;;16.83;;
36303;SDS011;22335;49.800;8.596;2023-04-06T20:37:25;20.08;;;18.23;;
36303;SDS011;22335;49.800;8.596;2023-04-06T20:44:09;19.87;;;18.27;;
36303;SDS011;22335;49.800;8.596;2023-04-06T20:50:53;20.73;;;19.02;;
36303;SDS011;22335;49.800;8.596;2023-04-06T20:57:38;21.85;;;20.05;;
36303;SDS011;22335;49.800;8.596;2023-04-06T21:04:22;21.15;;;19.35;;
36303;SDS011;22335;49.800;8.596;2023-04-06T21:11:06;23.05;;;20.98;;
36303;SDS011;22335;49.800;8.596;2023-04-06T21:17:52;23.75;;;21.75;;
36303;SDS011;22335;49.800;8.596;2023-04-06T21:24:35;23.08;;;21.17;;
36303;SDS011;22335;49.800;8.596;2023-04-06T21:31:19;23.63;;;21.52;;
36303;SDS011;22335;49.800;8.596;2023-04-06T21:38:04;23.88;;;21.88;;
36303;SDS011;22335;49.800;8.596;2023-04-06T21:44:47;24.05;;;21.95;;
36303;SDS011;22335;49.800;8.596;2023-04-06T21:51:31;24.05;;;21.95;;
36303;SDS011;22335;49.800;8.596;2023-04-06T21:58:16;23.60;;;21.58;;
36303;SDS011;22335;49.800;8.596;2023-04-06T22:05:00;22.85;;;20.85;;
36303;SDS011;22335;49.800;8.596;2023-04-06T22:11:43;22.48;;;20.48;;
36303;SDS011;22335;49.800;8.596;2023-04-06T22:18:28;22.20;;;20.30;;
36303;SDS011;22335;49.800;8.596;2023-04-06T22:25:12;22.30;;;20.50;;
36303;SDS011;22335;49.800;8.596;2023-04-06T22:31:55;23.48;;;21.40;;
36303;SDS011;22335;49.800;8.596;2023-04-06T22:38:40;23.40;;;21.25;;
36303;SDS011;22335;49.800;8.596;2023-04-06T22:45:24;22.23;;;20.42;;
36303;SDS011;22335;49.800;8.596;2023-04-06T22:52:08;23.23;;;20.98;;
36303;SDS011;22335;49.800;8.596;2023-04-06T22:58:53;22.48;;;20.58;;
36303;SDS011;22335;49.800;8.596;2023-04-06T23:05:37;22.17;;;20.20;;
36303;SDS011;22335;49.800;8.596;2023-04-06T23:12:21;22.52;;;20.48;;
36303;SDS011;22335;49.800;8.596;2023-04-06T23:19:06;22.88;;;21.02;;
36303;SDS011;22335;49.800;8.596;2023-04-06T23:25:50;21.42;;;19.63;;
36303;SDS011;22335;49.800;8.596;2023-04-06T23:32:34;22.70;;;20.80;;
36303;SDS011;22335;49.800;8.596;2023-04-06T23:39:19;22.60;;;20.38;;
36303;SDS011;22335;49.800;8.596;2023-04-06T23:46:02;21.42;;;19.52;;
36303;SDS011;22335;49.800;8.596;2023-04-06T23:52:46;21.85;;;19.95;;
36303;SDS011;22335;49.800;8.596;2023-04-06T23:59:31;21.48;;;19.67;;
